Time;durP1;ratioP1;P1;durP2;ratioP2;P2;SDS_P1;SDS_P2;PMS_P1;PMS_P2;Temp;Humidity;BMP_temperature;BMP_pressure;BME280_temperature;BME280_humidity;BME280_pressure;Samples;Min_cycle;Max_cycle;Signal;HPM_P1;HPM_P2
2023/07/18 04:36:26;;;;;;;2.17;1.98;;;;;;;;;;5506162;23;20518;-72
2023/07/18 04:38:53;;;;;;;2.08;1.98;;;;;;;;;;4994483;28;20206;-72
2023/07/18 04:41:20;;;;;;;1.88;1.77;;;;;;;;;;4994357;28;20222;-72
2023/07/18 04:43:47;;;;;;;2.25;2.10;;;;;;;;;;4994655;28;20209;-73
2023/07/18 04:46:14;;;;;;;1.98;1.92;;;;;;;;;;4994588;28;20223;-73
2023/07/18 04:48:41;;;;;;;1.45;1.45;;;;;;;;;;4994715;28;20203;-72
2023/07/18 04:51:08;;;;;;;2.10;2.00;;;;;;;;;;5008818;23;20249;-69
2023/07/18 04:53:37;;;;;;;2.38;2.28;;;;;;;;;;4994591;28;20234;-72
2023/07/18 04:56:05;;;;;;;2.38;2.28;;;;;;;;;;4994682;28;20202;-68
2023/07/18 04:58:32;;;;;;;2.28;2.17;;;;;;;;;;4994456;28;20293;-69
2023/07/18 05:00:59;;;;;;;2.15;2.05;;;;;;;;;;4994347;28;20218;-69
2023/07/18 05:03:27;;;;;;;1.92;1.83;;;;;;;;;;4994479;28;20207;-68
2023/07/18 05:05:55;;;;;;;2.05;1.95;;;;;;;;;;4994449;28;20229;-69
2023/07/18 05:08:22;;;;;;;2.30;2.20;;;;;;;;;;4994429;28;20205;-69
2023/07/18 05:10:51;;;;;;;1.83;1.73;;;;;;;;;;4995273;28;20229;-70
2023/07/18 05:13:18;;;;;;;2.15;2.05;;;;;;;;;;4994530;28;20669;-70
2023/07/18 05:16:18;;;;;;;2.50;2.10;;;;;;;;;;4994320;28;20209;-69
2023/07/18 05:18:45;;;;;;;2.38;2.25;;;;;;;;;;4994271;28;20260;-69
2023/07/18 05:21:12;;;;;;;3.08;2.50;;;;;;;;;;4994222;28;20229;-70
2023/07/18 05:23:39;;;;;;;2.30;2.10;;;;;;;;;;4994193;28;20269;-73
2023/07/18 05:26:12;;;;;;;2.08;1.98;;;;;;;;;;4996618;28;20568;-68
2023/07/18 05:28:39;;;;;;;2.45;2.35;;;;;;;;;;4998334;28;20194;-69
2023/07/18 05:31:08;;;;;;;2.95;2.85;;;;;;;;;;4997808;28;20230;-69
2023/07/18 05:33:35;;;;;;;3.80;3.60;;;;;;;;;;4998179;28;20201;-69
2023/07/18 05:36:02;;;;;;;3.90;3.70;;;;;;;;;;4997834;28;20665;-70
2023/07/18 05:38:29;;;;;;;3.83;3.63;;;;;;;;;;4998061;28;20211;-70
2023/07/18 05:40:56;;;;;;;3.90;3.60;;;;;;;;;;4997829;28;20226;-71
2023/07/18 05:43:24;;;;;;;3.58;3.38;;;;;;;;;;4998725;28;20226;-71
2023/07/18 05:45:51;;;;;;;3.33;3.13;;;;;;;;;;4998273;28;20209;-72
2023/07/18 05:48:18;;;;;;;2.80;2.70;;;;;;;;;;4998349;28;20202;-71
2023/07/18 05:50:46;;;;;;;2.80;2.70;;;;;;;;;;4998275;28;20238;-70
2023/07/18 05:53:13;;;;;;;2.47;2.33;;;;;;;;;;4998396;28;20186;-71
2023/07/18 05:55:40;;;;;;;2.10;2.00;;;;;;;;;;4998459;28;20213;-71
2023/07/18 05:58:07;;;;;;;2.00;1.90;;;;;;;;;;4998262;28;20206;-71
2023/07/18 06:00:35;;;;;;;1.70;1.70;;;;;;;;;;4998188;28;20254;-71
2023/07/18 06:03:02;;;;;;;1.70;1.70;;;;;;;;;;4998316;28;20222;-72
2023/07/18 06:05:34;;;;;;;2.00;1.90;;;;;;;;;;4998199;28;20677;-72
2023/07/18 06:08:03;;;;;;;2.00;1.90;;;;;;;;;;4997864;28;20673;-71
2023/07/18 06:10:30;;;;;;;2.00;1.90;;;;;;;;;;4997988;28;20226;-71
2023/07/18 06:12:57;;;;;;;2.17;2.08;;;;;;;;;;4998174;28;20194;-71
2023/07/18 06:15:25;;;;;;;1.48;1.38;;;;;;;;;;4997839;28;20206;-72
2023/07/18 06:17:54;;;;;;;1.70;1.65;;;;;;;;;;4997929;28;20202;-71
2023/07/18 06:20:21;;;;;;;2.50;1.88;;;;;;;;;;4997631;28;20666;-71
2023/07/18 06:22:48;;;;;;;1.70;1.60;;;;;;;;;;4997548;28;20222;-71
2023/07/18 06:25:17;;;;;;;1.45;1.45;;;;;;;;;;4997192;28;20672;-71
2023/07/18 06:27:44;;;;;;;1.65;1.55;;;;;;;;;;4997580;28;20289;-71
2023/07/18 06:30:11;;;;;;;2.35;2.15;;;;;;;;;;4997343;28;20206;-71
2023/07/18 06:32:39;;;;;;;1.55;1.45;;;;;;;;;;4996899;28;20680;-71
2023/07/18 06:35:10;;;;;;;1.27;1.27;;;;;;;;;;4997214;28;20206;-71
2023/07/18 06:37:39;;;;;;;1.63;1.52;;;;;;;;;;4997164;28;20201;-71
2023/07/18 06:40:07;;;;;;;1.63;1.52;;;;;;;;;;4997096;28;20250;-71
2023/07/18 06:42:36;;;;;;;1.35;1.25;;;;;;;;;;4997146;28;20221;-71
2023/07/18 06:45:06;;;;;;;3.47;1.52;;;;;;;;;;4997285;28;20229;-71
2023/07/18 06:47:34;;;;;;;1.73;1.63;;;;;;;;;;4997315;28;20197;-71
2023/07/18 06:50:01;;;;;;;1.17;1.15;;;36.10;60.30;;;;;;4997583;28;20202;-71
2023/07/18 06:52:29;;;;;;;1.40;1.30;;;;;;;;;;4996619;28;20237;-71
2023/07/18 06:54:56;;;;;;;1.65;1.58;;;;;;;;;;4996951;28;20206;-71
2023/07/18 06:57:23;;;;;;;1.30;1.20;;;;;;;;;;4997061;28;20209;-71
2023/07/18 06:59:50;;;;;;;3.42;1.42;;;;;;;;;;4997500;28;20198;-71
2023/07/18 07:02:17;;;;;;;1.73;1.63;;;;;;;;;;4996843;28;20222;-71
2023/07/18 07:04:45;;;;;;;1.48;1.38;;;;;;;;;;4996304;28;20206;-71
2023/07/18 07:07:12;;;;;;;1.05;1.05;;;;;;;;;;4996843;28;20203;-71
2023/07/18 07:09:40;;;;;;;1.30;1.20;;;;;;;;;;4996671;28;20202;-71
2023/07/18 07:12:08;;;;;;;1.38;1.27;;;;;;;;;;4996537;28;20230;-71
2023/07/18 07:14:35;;;;;;;2.00;1.33;;;;;;;;;;4996812;28;20201;-71
2023/07/18 07:17:02;;;;;;;1.83;1.15;;;;;;;;;;4996534;28;20206;-71
2023/07/18 07:19:29;;;;;;;1.13;1.08;;;;;;;;;;4996380;28;20198;-71
2023/07/18 07:21:56;;;;;;;1.35;1.15;;;;;;;;;;4996398;28;20234;-71
2023/07/18 07:24:23;;;;;;;1.42;1.33;;;;;;;;;;4996429;28;20230;-71
2023/07/18 07:26:51;;;;;;;1.55;1.45;;;;;;;;;;4996171;28;20670;-71
2023/07/18 07:29:18;;;;;;;1.33;1.30;;;;;;;;;;4996428;28;20206;-72
2023/07/18 07:31:45;;;;;;;1.10;1.00;;;;;;;;;;4996405;28;20218;-71
2023/07/18 07:34:13;;;;;;;1.15;1.15;;;;;;;;;;4996215;28;20198;-72
2023/07/18 07:36:40;;;;;;;1.08;0.98;;;;;;;;;;4996342;28;20249;-72
2023/07/18 07:39:07;;;;;;;0.93;0.93;;;;;;;;;;4996292;28;20206;-72
2023/07/18 07:41:34;;;;;;;1.60;1.13;;;;;;;;;;4996389;28;20233;-73
2023/07/18 07:44:03;;;;;;;1.05;1.05;;;;;;;;;;4995831;28;20708;-72
2023/07/18 07:46:32;;;;;;;0.70;0.70;;;;;;;;;;4996017;28;20670;-71
2023/07/18 07:48:59;;;;;;;0.98;0.98;;;;;;;;;;4996081;28;20244;-71
2023/07/18 07:51:26;;;;;;;1.08;0.90;;;;;;;;;;4995467;28;20241;-71
2023/07/18 07:53:54;;;;;;;0.93;0.93;;;;;;;;;;4995849;28;20301;-71
2023/07/18 07:56:21;;;;;;;1.20;1.20;;;;;;;;;;4995709;28;20229;-71
2023/07/18 07:58:48;;;;;;;1.25;1.13;;;;;;;;;;4999003;28;20202;-71
2023/07/18 08:01:16;;;;;;;1.33;1.15;;;;;;;;;;5008333;28;20234;-71
2023/07/18 08:03:44;;;;;;;1.50;1.40;;;;;;;;;;5008080;28;20229;-71
2023/07/18 08:06:11;;;;;;;1.00;1.00;;;;;;;;;;5001887;28;20209;-71
2023/07/18 08:08:38;;;;;;;1.00;1.00;;;;;;;;;;4995404;28;20202;-71
2023/07/18 08:11:05;;;;;;;1.20;1.20;;;;;;;;;;4994994;28;20222;-72
2023/07/18 08:13:32;;;;;;;1.90;1.67;;;;;;;;;;4994960;28;20661;-72
2023/07/18 08:15:59;;;;;;;1.38;1.30;;;;;;;;;;4995170;28;20253;-71
2023/07/18 08:18:26;;;;;;;1.35;1.25;;;;;;;;;;4995147;28;20209;-71
2023/07/18 08:20:53;;;;;;;1.35;1.35;;;;;;;;;;4995024;28;20316;-71
2023/07/18 08:23:20;;;;;;;1.90;1.80;;;;;;;;;;4994973;28;20222;-71
2023/07/18 08:25:47;;;;;;;1.88;1.77;;;;;;;;;;4995026;28;20206;-71
2023/07/18 08:28:14;;;;;;;1.80;1.70;;;;;;;;;;4994990;28;20205;-71
2023/07/18 08:30:42;;;;;;;1.63;1.60;;;;;;;;;;4994841;28;20225;-71
2023/07/18 08:33:09;;;;;;;1.98;1.77;;;;;;;;;;4994791;28;20289;-71
2023/07/18 08:35:39;;;;;;;1.90;1.80;;;;;;;;;;4994416;28;20620;-71
2023/07/18 08:38:06;;;;;;;1.92;1.50;;;;;;;;;;4994839;28;20632;-71
2023/07/18 08:40:33;;;;;;;1.42;1.42;;;;;;;;;;4994635;28;20713;-72
2023/07/18 08:43:00;;;;;;;2.38;1.85;;;;;;;;;;4994739;28;20206;-72
2023/07/18 08:45:29;;;;;;;1.83;1.83;;;;;;;;;;4994714;28;20295;-71
2023/07/18 08:47:57;;;;;;;2.00;1.90;;;;;;;;;;4994869;28;20209;-72
2023/07/18 08:50:26;;;;;;;1.75;1.65;;;;;;;;;;4994143;28;20210;-71
2023/07/18 08:52:54;;;;;;;1.67;1.58;;;;;;;;;;4994491;28;20656;-72
2023/07/18 08:55:21;;;;;;;2.58;1.83;;;;;;;;;;4994348;28;20210;-72
2023/07/18 08:57:52;;;;;;;2.35;2.25;;;;;;;;;;4994730;28;20202;-72
2023/07/18 09:00:20;;;;;;;2.28;2.05;;;;;;;;;;4993654;28;20194;-70
2023/07/18 09:02:49;;;;;;;2.30;2.20;;;;;;;;;;4994440;28;20205;-71
2023/07/18 09:05:31;;;;;;;2.10;2.00;;;;;;;;;;4994347;28;20308;-71
2023/07/18 09:08:00;;;;;;;2.08;1.98;;;;;;;;;;4994409;28;20196;-72
2023/07/18 09:10:27;;;;;;;2.05;1.95;;;;;;;;;;4994337;28;20226;-71
2023/07/18 09:12:57;;;;;;;2.35;2.20;;;;;;;;;;4994405;28;20209;-72
2023/07/18 09:15:24;;;;;;;2.50;2.30;;;;;;;;;;4994360;28;20190;-70
2023/07/18 09:17:55;;;;;;;4.07;2.90;;;;;;;;;;4994234;28;20206;-72
2023/07/18 09:20:22;;;;;;;2.50;2.30;;;;;;;;;;4994104;28;20187;-71
2023/07/18 09:22:50;;;;;;;2.58;2.38;;;;;;;;;;4994250;28;20572;-71
2023/07/18 09:25:19;;;;;;;2.55;2.35;;;;;;;;;;4994211;28;20292;-71
2023/07/18 09:27:46;;;;;;;2.30;2.20;;;;;;;;;;4994348;28;20206;-71
2023/07/18 09:30:15;;;;;;;2.45;2.33;;;;;;;;;;4994064;28;20285;-70
2023/07/18 09:32:45;;;;;;;2.20;2.10;;;;;;;;;;4994200;28;20206;-71
2023/07/18 09:35:13;;;;;;;2.50;2.38;;;;;;;;;;4993984;28;20189;-72
2023/07/18 09:37:46;;;;;;;2.47;2.35;;;;;;;;;;4994499;28;20198;-71
2023/07/18 09:40:14;;;;;;;1.88;1.77;;;;;;;;;;4994116;28;20187;-70
2023/07/18 09:42:44;;;;;;;1.98;1.88;;;;;;;;;;4994131;28;20206;-71
2023/07/18 09:45:12;;;;;;;4.65;3.35;;;;;;;;;;4993977;28;20229;-71
2023/07/18 09:48:02;;;;;;;3.20;2.88;;;;;;;;;;4994062;28;20202;-71
2023/07/18 09:51:08;;;;;;;2.50;2.30;;;;;;;;;;4993853;28;20225;-71
2023/07/18 09:53:35;;;;;;;4.88;2.83;;;;;;;;;;4993768;28;20657;-71
2023/07/18 09:56:02;;;;;;;2.80;2.70;;;;;;;;;;4993745;28;20641;-71
2023/07/18 09:58:31;;;;;;;2.25;2.15;;;;;;;;;;4993941;28;20202;-71
2023/07/18 10:01:00;;;;;;;2.50;2.40;;;;;;;;;;4993809;28;20229;-71
2023/07/18 10:03:31;;;;;;;2.83;2.40;;;;;;;;;;4993978;28;20198;-71
2023/07/18 10:05:58;;;;;;;3.67;3.30;;;;;;;;;;4993908;28;20252;-71
2023/07/18 10:08:25;;;;;;;2.97;2.78;;;;;;;;;;4993907;28;20205;-71
2023/07/18 10:11:03;;;;;;;3.03;2.83;;;;;;;;;;4994098;28;20226;-71
2023/07/18 10:13:40;;;;;;;3.08;2.88;;;;;;;;;;4997310;28;20209;-71
2023/07/18 10:16:17;;;;;;;2.72;2.60;;;;;;;;;;4997512;28;20214;-71
2023/07/18 10:18:45;;;;;;;2.90;2.80;;;;;;;;;;4997889;28;20186;-72
2023/07/18 10:21:13;;;;;;;2.83;2.72;;;;;;;;;;4997494;28;20230;-71
2023/07/18 10:23:41;;;;;;;7.45;2.80;;;;;;;;;;4997114;28;20677;-70
2023/07/18 10:26:42;;;;;;;3.40;2.70;;;;;;;;;;4997227;28;20257;-70
2023/07/18 10:29:11;;;;;;;3.05;2.85;;;;;;;;;;4997410;28;20200;-70
2023/07/18 10:31:38;;;;;;;2.72;2.63;;;;;;;;;;4997148;28;20233;-71
2023/07/18 10:34:06;;;;;;;2.60;2.50;;;;;;;;;;4997139;28;20292;-71
2023/07/18 10:36:34;;;;;;;2.83;2.47;;;;;;;;;;4997229;28;20200;-70
2023/07/18 10:39:01;;;;;;;3.00;2.80;;;;;;;;;;4996792;28;20202;-70
2023/07/18 10:41:28;;;;;;;2.50;2.38;;;;;;;;;;4996909;28;20237;-70
2023/07/18 10:43:55;;;;;;;2.22;2.00;;;;;;;;;;4996800;28;20669;-71
2023/07/18 10:46:23;;;;;;;2.85;2.65;;;;;;;;;;4996948;28;20218;-71
2023/07/18 10:48:50;;;;;;;2.90;2.70;;;;;;;;;;4996952;28;20205;-71
2023/07/18 10:51:17;;;;;;;2.70;2.60;;;;;;;;;;5019685;23;20763;-72
2023/07/18 10:53:53;;;;;;;2.70;2.60;;;;;;;;;;4997632;28;20206;-72
2023/07/18 10:56:20;;;;;;;2.42;2.33;;;;;;;;;;4997703;28;20186;-73
2023/07/18 10:58:47;;;;;;;2.40;2.30;;;;;;;;;;4997014;28;20673;-73
2023/07/18 11:01:15;;;;;;;2.53;2.42;;;;;;;;;;4997280;28;20233;-73
2023/07/18 11:03:46;;;;;;;2.60;2.50;;;;;;;;;;4997030;28;20245;-73
2023/07/18 11:06:14;;;;;;;2.67;2.50;;;;;;;;;;4996811;28;20214;-73
2023/07/18 11:08:45;;;;;;;2.75;2.55;;;;;;;;;;4996858;28;20225;-73
2023/07/18 11:11:14;;;;;;;2.58;2.42;;;;;;;;;;4997288;28;20744;-73
2023/07/18 11:13:43;;;;;;;2.40;2.30;;;;;;;;;;4997397;28;20202;-72
2023/07/18 11:16:11;;;;;;;2.47;2.38;;;;;;;;;;4997170;28;20198;-71
2023/07/18 11:18:38;;;;;;;2.42;2.30;;;;;;;;;;4997173;28;20213;-72
2023/07/18 11:21:08;;;;;;;2.60;2.50;;;;;;;;;;4997725;28;20226;-72
2023/07/18 11:23:36;;;;;;;2.92;2.78;;;;;;;;;;4996806;28;20293;-71
2023/07/18 11:26:10;;;;;;;2.80;2.60;;;;;;;;;;4998163;28;20701;-71
2023/07/18 11:28:37;;;;;;;2.55;2.45;;;;;;;;;;4997520;28;20615;-74
2023/07/18 11:31:05;;;;;;;2.78;2.67;;;;;;;;;;4997705;28;20237;-74
2023/07/18 11:33:33;;;;;;;2.85;2.72;;;;;;;;;;4997420;28;20210;-74
2023/07/18 11:36:00;;;;;;;2.63;2.53;;;;;;;;;;4997474;28;20225;-74
2023/07/18 11:38:30;;;;;;;3.00;2.75;;;;;;;;;;4997124;28;20206;-74
2023/07/18 11:40:59;;;;;;;3.25;3.05;;;;;;;;;;4997334;28;20289;-75
2023/07/18 11:43:30;;;;;;;3.10;2.90;;;;;;;;;;4997142;28;20199;-74
2023/07/18 11:45:57;;;;;;;3.65;3.33;;;;;;;;;;4996043;28;20245;-73
2023/07/18 11:48:25;;;;;;;3.55;3.35;;;;;;;;;;4997097;28;20234;-73
2023/07/18 11:50:53;;;;;;;4.03;2.80;;;;;;;;;;4997036;28;20274;-73
2023/07/18 11:53:26;;;;;;;2.90;2.80;;;;;;;;;;4997070;28;20190;-73
2023/07/18 11:55:55;;;;;;;3.05;2.85;;;;;;;;;;4996862;28;20183;-73
2023/07/18 11:58:22;;;;;;;3.38;3.10;;;;;;;;;;4995900;28;20225;-72
2023/07/18 12:00:49;;;;;;;2.63;2.53;;;;;;;;;;4995844;28;20222;-72
2023/07/18 12:03:16;;;;;;;2.90;2.80;;;;;;;;;;4995652;28;20570;-72
2023/07/18 12:05:43;;;;;;;2.80;2.70;;;;;;;;;;4995543;28;20202;-72
2023/07/18 12:08:10;;;;;;;2.70;2.60;;;;;;;;;;4995185;28;20630;-72
2023/07/18 12:10:37;;;;;;;2.58;2.47;;;;;;;;;;4995268;28;20569;-71
2023/07/18 12:13:05;;;;;;;2.80;2.60;;;;;;;;;;4995713;28;20202;-71
2023/07/18 12:15:33;;;;;;;4.30;3.03;;;;;;;;;;4995817;28;20673;-71
2023/07/18 12:18:00;;;;;;;4.00;3.53;;;;;;;;;;4995839;28;20253;-71
2023/07/18 12:20:27;;;;;;;3.70;3.50;;;;;;;;;;4997711;28;20209;-71
2023/07/18 12:22:54;;;;;;;3.45;3.22;;;;;;;;;;4995568;28;20561;-71
2023/07/18 12:25:22;;;;;;;3.53;3.33;;;;;;;;;;4995441;28;20206;-71
2023/07/18 12:27:49;;;;;;;3.40;3.20;;;;;;;;;;4995282;28;20214;-71
2023/07/18 12:30:17;;;;;;;3.63;3.30;;;;;;;;;;4995183;28;20301;-71
2023/07/18 12:32:45;;;;;;;3.63;3.25;;;;;;;;;;4995145;28;20236;-71
2023/07/18 12:35:12;;;;;;;3.50;3.20;;;;;;;;;;4995002;28;20242;-71
2023/07/18 12:37:39;;;;;;;3.63;3.33;;;;;;;;;;4994713;28;20676;-71
2023/07/18 12:40:08;;;;;;;3.20;3.00;;;;;;;;;;4994853;28;20234;-71
2023/07/18 12:42:35;;;;;;;3.00;2.80;;;;;;;;;;4994760;28;20229;-71
2023/07/18 12:45:02;;;;;;;3.17;3.00;;;;;;;;;;4994882;28;20206;-71
2023/07/18 12:47:30;;;;;;;3.20;2.90;;;;;;;;;;4994642;28;20225;-71
2023/07/18 12:49:58;;;;;;;5.80;4.30;;;;;;;;;;4994365;28;20665;-72
2023/07/18 12:52:25;;;;;;;3.47;3.17;;;;;;;;;;4994290;28;20230;-72
2023/07/18 12:54:52;;;;;;;4.05;3.65;;;;;;;;;;4994572;28;20210;-72
2023/07/18 12:57:19;;;;;;;4.22;3.30;;;;;;;;;;4994595;28;20198;-72
2023/07/18 12:59:47;;;;;;;5.78;3.47;;;;;;;;;;4994549;28;20202;-72
2023/07/18 13:02:14;;;;;;;3.42;2.90;;;;;;;;;;4994538;28;20218;-72
2023/07/18 13:04:43;;;;;;;3.50;2.85;;;;;;;;;;4994111;28;20202;-72
2023/07/18 13:07:10;;;;;;;3.38;3.03;;;;;;;;;;4994476;28;20222;-72
2023/07/18 13:09:38;;;;;;;2.70;2.50;;;;;;;;;;4995884;28;20206;-72
2023/07/18 13:12:06;;;;;;;2.65;2.53;;;;;;;;;;5005044;28;20289;-72
2023/07/18 13:14:33;;;;;;;2.60;2.42;;;;;;;;;;5012982;28;20206;-72
2023/07/18 13:17:00;;;;;;;2.80;2.60;;;;;;;;;;5011520;28;20593;-72
2023/07/18 13:19:27;;;;;;;2.72;2.47;;;;;;;;;;4996333;28;20186;-72
2023/07/18 13:21:56;;;;;;;2.60;2.50;;;;;;;;;;4994160;28;20226;-72
2023/07/18 13:24:23;;;;;;;2.38;2.28;;;;;;;;;;4994378;28;20206;-72
2023/07/18 13:26:50;;;;;;;2.97;2.78;;;;;;;;;;4994142;28;20233;-72
2023/07/18 13:29:17;;;;;;;2.42;2.33;;;;;;;;;;4994200;28;20209;-72
2023/07/18 13:31:44;;;;;;;2.55;2.45;;;;;;;;;;4994182;28;20584;-72
2023/07/18 13:34:11;;;;;;;2.65;2.47;;;;;;;;;;4993910;28;20194;-72
2023/07/18 13:36:38;;;;;;;2.70;2.60;;;;;;;;;;4993698;28;20562;-72
2023/07/18 13:39:07;;;;;;;2.70;2.60;;;;;;;;;;4993772;28;20198;-72
2023/07/18 13:41:34;;;;;;;2.72;2.63;;;;;;;;;;4993737;28;20235;-72
2023/07/18 13:44:01;;;;;;;2.83;2.72;;;;;;;;;;4993697;28;20704;-72
2023/07/18 13:46:29;;;;;;;2.65;2.55;;;;;;;;;;4995410;28;20212;-72
2023/07/18 13:48:56;;;;;;;3.20;3.00;;;;;;;;;;4998007;28;20205;-72
2023/07/18 13:51:23;;;;;;;6.10;3.65;;;;;;;;;;4997650;28;20241;-72
2023/07/18 13:53:51;;;;;;;3.90;3.60;;;;;;;;;;4998090;28;20202;-71
2023/07/18 13:56:19;;;;;;;3.92;3.65;;;;;;;;;;4998453;28;20213;-71
2023/07/18 13:58:46;;;;;;;4.13;3.70;;;;;;;;;;4997840;28;20195;-71
2023/07/18 14:01:13;;;;;;;3.70;3.40;;;;;;;;;;4997680;28;20229;-72
2023/07/18 14:03:40;;;;;;;4.82;4.43;;;;;;;;;;4997790;28;20186;-72
2023/07/18 14:06:07;;;;;;;5.72;4.47;;;;;;;;;;4997658;28;20202;-72
2023/07/18 14:08:35;;;;;;;4.20;3.90;;;;;;;;;;4998465;28;20209;-72
2023/07/18 14:11:02;;;;;;;4.10;3.70;;;;;;;;;;4997782;28;20230;-72
2023/07/18 14:13:31;;;;;;;4.13;3.72;;;;;;;;;;4998007;28;20206;-72
2023/07/18 14:15:58;;;;;;;4.05;3.75;;;;;;;;;;4997838;28;20202;-73
2023/07/18 14:18:25;;;;;;;3.25;3.05;;;;;;;;;;4997240;28;20198;-72
2023/07/18 14:20:53;;;;;;;3.65;3.45;;;;;;;;;;4997449;28;20700;-72
2023/07/18 14:23:20;;;;;;;4.45;4.05;;;;;;;;;;4997209;28;20198;-72
2023/07/18 14:25:48;;;;;;;4.40;4.00;;;;;;;;;;4997648;28;20233;-72
2023/07/18 14:28:16;;;;;;;4.22;3.92;;;;;;;;;;4997496;28;20222;-72
2023/07/18 14:30:44;;;;;;;4.05;3.42;;;;;;;;;;4997294;28;20701;-72
2023/07/18 14:33:13;;;;;;;4.25;3.95;;;;;;;;;;4998287;28;20202;-72
2023/07/18 14:35:41;;;;;;;4.10;3.80;;;;;;;;;;4997215;28;20198;-72
2023/07/18 14:38:08;;;;;;;4.07;3.78;;;;;;;;;;4997145;28;20198;-72
2023/07/18 14:40:36;;;;;;;3.63;3.38;;;;;;;;;;4996929;28;20248;-72
2023/07/18 14:43:07;;;;;;;3.88;3.58;;;;;;;;;;4996578;28;20642;-72
2023/07/18 14:45:34;;;;;;;4.15;3.85;;;;;;;;;;4997037;28;20190;-72
2023/07/18 14:48:03;;;;;;;3.72;3.42;;;;;;;;;;4996842;28;20280;-72
2023/07/18 14:50:30;;;;;;;3.70;3.45;;;;;;;;;;4996616;28;20621;-72
2023/07/18 14:52:57;;;;;;;3.72;3.45;;;;;;;;;;4996844;28;20191;-72
2023/07/18 14:55:24;;;;;;;3.78;3.47;;;;;;;;;;4996828;28;20632;-71
2023/07/18 14:57:51;;;;;;;3.75;3.55;;;;;;;;;;4995440;28;20202;-71
2023/07/18 15:00:19;;;;;;;3.63;3.40;;;;;;;;;;4996787;28;20206;-71
2023/07/18 15:02:46;;;;;;;4.03;3.70;;;;;;;;;;4996527;28;20286;-71
2023/07/18 15:05:14;;;;;;;3.75;3.55;;;;;;;;;;4997337;28;20338;-71
2023/07/18 15:07:42;;;;;;;4.10;3.80;;;;;;;;;;4996432;28;20218;-71
2023/07/18 15:10:09;;;;;;;3.67;3.47;;;;;;;;;;4996687;28;20599;-71
2023/07/18 15:12:38;;;;;;;3.60;3.40;;;;;;;;;;4996386;28;20241;-71
2023/07/18 15:15:05;;;;;;;3.60;3.40;;;;;;;;;;4996438;28;20213;-71
2023/07/18 15:17:38;;;;;;;3.17;3.08;;;;;;;;;;4996316;28;20567;-71
2023/07/18 15:20:08;;;;;;;2.88;2.78;;;;;;;;;;4996070;28;20679;-71
2023/07/18 15:22:36;;;;;;;3.50;3.25;;;;;;;;;;4996257;28;20257;-71
2023/07/18 15:25:05;;;;;;;2.97;2.80;;;;;;;;;;4995927;28;20209;-71
2023/07/18 15:27:32;;;;;;;2.88;2.67;;;;;;;;;;4996069;28;20254;-71
2023/07/18 15:29:59;;;;;;;2.92;2.72;;;;;;;;;;4996441;28;20205;-72
2023/07/18 15:32:26;;;;;;;2.70;2.60;;;;;;;;;;4996085;28;20229;-72
2023/07/18 15:34:53;;;;;;;2.63;2.38;;;;;;;;;;4996413;28;20209;-70
2023/07/18 15:37:20;;;;;;;2.40;2.30;;;;;;;;;;4995953;28;20201;-70
2023/07/18 15:39:48;;;;;;;2.58;2.47;;;;;;;;;;4995687;28;20201;-70
2023/07/18 15:42:15;;;;;;;2.28;2.17;;;;;;;;;;4995811;28;20230;-70
2023/07/18 15:44:43;;;;;;;2.03;2.03;;;;;;;;;;4997073;28;20662;-70
2023/07/18 15:47:10;;;;;;;2.28;2.17;;;;;;;;;;4995589;28;20218;-70
2023/07/18 15:49:37;;;;;;;1.90;1.90;;;;;;;;;;4995631;28;20205;-70
2023/07/18 15:52:05;;;;;;;1.90;1.90;;;;;;;;;;4995611;28;20237;-70
2023/07/18 15:54:32;;;;;;;2.15;2.05;;;;;;;;;;4995479;28;20209;-70
2023/07/18 15:57:01;;;;;;;1.80;1.80;;;;;;;;;;4995147;28;20573;-71
2023/07/18 15:59:28;;;;;;;2.05;1.98;;;;;;;;;;4995486;28;20206;-71
2023/07/18 16:01:55;;;;;;;2.08;1.98;;;;;;;;;;4995619;28;20230;-71
2023/07/18 16:04:22;;;;;;;1.70;1.70;;;;;;;;;;4995687;28;20201;-70
2023/07/18 16:06:49;;;;;;;2.47;2.38;;;;;;;;;;4995404;28;20202;-72
2023/07/18 16:09:17;;;;;;;2.13;2.03;;;;;;;;;;4995245;28;20198;-72
2023/07/18 16:11:44;;;;;;;1.80;1.80;;;;;;;;;;4994915;28;20226;-71
2023/07/18 16:14:13;;;;;;;1.55;1.52;;;;;;;;;;4995289;28;20232;-72
2023/07/18 16:16:42;;;;;;;2.35;2.25;;;;;;;;;;4995135;28;20202;-72
2023/07/18 16:19:09;;;;;;;2.20;2.10;;;;;;;;;;4994897;28;20252;-72
2023/07/18 16:21:38;;;;;;;2.03;1.92;;;;;;;;;;4995063;28;20230;-72
2023/07/18 16:24:05;;;;;;;2.22;2.13;;;;;;;;;;4994716;28;20575;-72
2023/07/18 16:26:33;;;;;;;1.83;1.83;;;;;;;;;;4995092;28;20264;-72
2023/07/18 16:29:00;;;;;;;2.03;1.92;;;;;;;;;;4995122;28;20253;-71
2023/07/18 16:31:30;;;;;;;1.80;1.80;;;;;;;;;;4994898;28;20693;-70
2023/07/18 16:33:57;;;;;;;2.10;2.00;;;;;;;;;;4994967;28;20297;-71
2023/07/18 16:36:24;;;;;;;2.55;2.45;;;;;;;;;;4994907;28;20234;-71
2023/07/18 16:38:51;;;;;;;3.13;2.05;;;;;;;;;;4994868;28;20291;-71
2023/07/18 16:41:18;;;;;;;1.80;1.80;;;;;;;;;;4994627;28;20233;-71
2023/07/18 16:43:45;;;;;;;2.10;2.10;;;;;;;;;;4994775;28;20206;-72
2023/07/18 16:46:14;;;;;;;2.05;1.95;;;;;;;;;;4994697;28;20213;-71
2023/07/18 16:48:42;;;;;;;2.17;2.08;;;;;;;;;;4994539;28;20272;-72
2023/07/18 16:51:13;;;;;;;2.00;2.00;;;;;;;;;;4994834;28;20316;-72
2023/07/18 16:53:40;;;;;;;2.28;2.17;;;;;;;;;;4994623;28;20289;-71
2023/07/18 16:56:08;;;;;;;2.40;2.20;;;;;;;;;;4994536;28;20225;-71
2023/07/18 16:58:35;;;;;;;1.83;1.83;;;;;;;;;;4995021;28;20646;-71
2023/07/18 17:01:02;;;;;;;2.17;2.08;;;;;;;;;;4994126;28;20709;-71
2023/07/18 17:03:29;;;;;;;2.08;2.05;;;;;;;;;;4994114;28;20206;-72
2023/07/18 17:05:57;;;;;;;2.00;2.00;;;;;;;;;;4994341;28;20213;-72
2023/07/18 17:08:24;;;;;;;2.20;2.10;;;;;;;;;;4994281;28;20226;-72
2023/07/18 17:10:51;;;;;;;2.28;2.17;;;;;;;;;;4994221;28;20229;-72
2023/07/18 17:13:21;;;;;;;2.70;2.60;;;;;;;;;;4993933;28;20198;-72
2023/07/18 17:15:48;;;;;;;2.20;2.10;;;;;;;;;;4994250;28;20204;-71
2023/07/18 17:18:15;;;;;;;1.95;1.85;;;;;;;;;;4993911;28;20608;-71
2023/07/18 17:20:42;;;;;;;2.30;2.20;;;;;;;;;;4993100;28;20733;-72
2023/07/18 17:23:10;;;;;;;1.92;1.90;;;;;;;;;;4993911;28;20673;-72
2023/07/18 17:25:37;;;;;;;2.58;2.47;;;;;;;;;;4993808;28;20716;-72
2023/07/18 17:28:04;;;;;;;2.42;2.33;;;;;;;;;;4994080;28;20240;-72
2023/07/18 17:30:32;;;;;;;2.28;2.17;;;;;;;;;;4993724;28;20205;-72
2023/07/18 17:32:59;;;;;;;2.40;2.28;;;;;;;;;;4994065;28;20198;-72
2023/07/18 17:35:26;;;;;;;2.42;2.33;;;;;;;;;;4993968;28;20258;-73
2023/07/18 17:37:53;;;;;;;2.60;2.50;;;;;;;;;;4993981;28;20198;-70
2023/07/18 17:40:21;;;;;;;2.30;2.20;;;;;;;;;;4993846;28;20210;-70
2023/07/18 17:42:48;;;;;;;2.90;2.80;;;;;;;;;;4993475;28;20696;-70
2023/07/18 17:45:15;;;;;;;3.10;2.90;;;;;;;;;;4993886;28;20213;-70
2023/07/18 17:47:44;;;;;;;3.20;2.88;;;;;;;;;;4993752;28;20245;-70
2023/07/18 17:50:11;;;;;;;2.60;2.50;;;;;;;;;;4993919;28;20213;-70
2023/07/18 17:52:39;;;;;;;2.67;2.47;;;;;;;;;;4993561;28;20721;-70
2023/07/18 17:55:09;;;;;;;2.60;2.50;;;;;;;;;;4993830;28;20202;-70
2023/07/18 17:57:39;;;;;;;2.67;2.58;;;;;;;;;;4993781;28;20614;-70
2023/07/18 18:00:07;;;;;;;2.53;2.42;;;;;;;;;;4993908;28;20240;-69
2023/07/18 18:02:34;;;;;;;2.42;2.33;;;;;;;;;;4993711;28;20218;-69
2023/07/18 18:05:01;;;;;;;2.75;2.55;;;;;;;;;;4993802;28;20293;-69
2023/07/18 18:07:28;;;;;;;2.70;2.60;;;;;;;;;;4993755;28;20570;-69
2023/07/18 18:09:55;;;;;;;3.20;3.00;;;;;;;;;;4993773;28;20202;-68
2023/07/18 18:12:23;;;;;;;3.00;2.90;;;;;;;;;;4993450;28;20589;-68
2023/07/18 18:14:51;;;;;;;2.88;2.78;;;;;;;;;;4993394;28;20202;-68
2023/07/18 18:17:18;;;;;;;2.50;2.40;;;;;;;;;;4993661;28;20198;-68
2023/07/18 18:19:45;;;;;;;2.65;2.55;;;;;;;;;;4993647;28;20313;-68
2023/07/18 18:22:12;;;;;;;2.58;2.47;;;;;;;;;;4994034;28;20226;-69
2023/07/18 18:24:41;;;;;;;3.20;3.00;;;;;;;;;;4993637;28;20205;-69
2023/07/18 18:27:08;;;;;;;2.80;2.60;;;;;;;;;;4993579;28;20297;-68
2023/07/18 18:29:35;;;;;;;2.88;2.78;;;;;;;;;;4993484;28;20225;-69
2023/07/18 18:32:04;;;;;;;3.20;2.97;;;;;;;;;;4994058;28;20245;-69
2023/07/18 18:34:31;;;;;;;4.10;3.35;;;;;;;;;;4997070;28;20210;-70
2023/07/18 18:36:58;;;;;;;2.97;2.78;;;;;;;;;;4997024;28;20206;-68
2023/07/18 18:39:25;;;;;;;3.03;2.90;;;;;;;;;;4996738;28;20203;-69
2023/07/18 18:41:53;;;;;;;2.80;2.60;;;;;;;;;;4996651;28;20709;-69
2023/07/18 18:44:20;;;;;;;3.30;3.10;;;;;;;;;;4996936;28;20613;-69
2023/07/18 18:46:47;;;;;;;3.08;2.88;;;;;;;;;;4996946;28;20202;-69
2023/07/18 18:49:16;;;;;;;3.05;2.90;;;;;;;;;;4996915;28;20229;-70
2023/07/18 18:51:43;;;;;;;2.88;2.78;;;;;;;;;;4996511;28;20601;-70
2023/07/18 18:54:10;;;;;;;2.53;2.42;;;;;;;;;;4996800;28;20206;-70
2023/07/18 18:56:38;;;;;;;2.92;2.78;;;;;;;;;;4996686;28;20210;-69
2023/07/18 18:59:05;;;;;;;3.25;3.05;;;;;;;;;;4996354;28;20559;-68
2023/07/18 19:01:32;;;;;;;3.03;2.83;;;;;;;;;;4996461;28;20225;-69
2023/07/18 19:03:59;;;;;;;3.30;3.13;;;;;;;;;;4996581;28;20266;-68
2023/07/18 19:06:28;;;;;;;3.08;2.95;;;;;;;;;;4996187;28;20717;-68
2023/07/18 19:08:55;;;;;;;2.92;2.83;;;;;;;;;;4996700;28;20225;-68
2023/07/18 19:11:22;;;;;;;3.03;2.92;;;;;;;;;;4996701;28;20222;-68
2023/07/18 19:13:49;;;;;;;2.70;2.60;;;;;;;;;;5005673;28;20684;-68
2023/07/18 19:16:17;;;;;;;3.55;3.25;;;;;;;;;;5009248;28;20209;-68
2023/07/18 19:18:44;;;;;;;3.05;2.85;;;;;;;;;;5008303;28;20202;-68
2023/07/18 19:21:11;;;;;;;3.00;2.90;;;;;;;;;;4998934;28;20230;-68
2023/07/18 19:23:39;;;;;;;3.25;3.05;;;;;;;;;;4996336;28;20206;-68